Time;durP1;ratioP1;P1;durP2;ratioP2;P2;SDS_P1;SDS_P2;PMS_P1;PMS_P2;Temp;Humidity;BMP_temperature;BMP_pressure;BME280_temperature;BME280_humidity;BME280_pressure;Samples;Min_cycle;Max_cycle;Signal;HPM_P1;HPM_P2
2023/08/01 00:01:32;;;;;;;26.05;9.32;;;15.70;99.90;;;;;;5113152;28;20380;-71
2023/08/01 00:03:58;;;;;;;22.75;9.40;;;15.70;99.90;;;;;;5091088;28;20541;-72
2023/08/01 00:06:24;;;;;;;;;;;15.70;99.90;;;;;;5120348;28;20049;-72
2023/08/01 00:08:51;;;;;;;23.67;9.17;;;15.70;99.90;;;;;;5106308;28;19931;-70
2023/08/01 00:11:16;;;;;;;24.42;9.02;;;15.70;99.90;;;;;;5091941;28;20054;-71
2023/08/01 00:13:45;;;;;;;24.65;9.77;;;15.70;99.90;;;;;;5091332;28;20055;-71
2023/08/01 00:16:10;;;;;;;19.73;9.20;;;15.70;99.90;;;;;;5095834;28;20613;-71
2023/08/01 00:18:36;;;;;;;25.92;9.57;;;15.70;99.90;;;;;;5088376;27;20063;-73
2023/08/01 00:21:02;;;;;;;;;;;15.70;99.90;;;;;;5098924;27;20062;-73
2023/08/01 00:23:28;;;;;;;20.83;9.82;;;15.70;99.90;;;;;;5115701;27;19919;-73
2023/08/01 00:25:53;;;;;;;20.02;9.98;;;15.70;99.90;;;;;;5113144;27;20047;-75
2023/08/01 00:28:19;;;;;;;;;;;15.70;99.90;;;;;;5133440;27;20051;-73
2023/08/01 00:30:45;;;;;;;21.85;10.27;;;15.70;99.90;;;;;;5116128;27;20013;-73
2023/08/01 00:33:10;;;;;;;22.50;10.85;;;15.70;99.90;;;;;;5134241;27;20050;-73
2023/08/01 00:35:36;;;;;;;;;;;15.70;99.90;;;;;;5116845;27;20052;-73
2023/08/01 00:38:02;;;;;;;24.92;10.77;;;15.70;99.90;;;;;;5115532;27;20018;-73
2023/08/01 00:40:31;;;;;;;;;;;15.70;99.90;;;;;;5099303;27;20043;-74
2023/08/01 00:42:57;;;;;;;24.48;11.02;;;15.70;99.90;;;;;;5114753;27;20404;-74
2023/08/01 00:45:26;;;;;;;22.83;11.80;;;15.70;99.90;;;;;;5114161;28;20539;-73
2023/08/01 00:47:52;;;;;;;21.95;11.32;;;15.70;99.90;;;;;;5101226;27;20082;-73
2023/08/01 00:50:22;;;;;;;22.88;10.40;;;15.70;99.90;;;;;;5133425;27;20043;-73
2023/08/01 00:52:48;;;;;;;26.00;10.48;;;15.60;99.90;;;;;;5115192;27;20089;-73
2023/08/01 00:55:15;;;;;;;23.77;10.45;;;15.60;99.90;;;;;;5133287;27;20050;-73
2023/08/01 00:57:42;;;;;;;21.70;10.00;;;15.60;99.90;;;;;;5132796;27;20519;-73
2023/08/01 01:00:08;;;;;;;19.98;9.38;;;15.60;99.90;;;;;;5098383;27;20090;-73
2023/08/01 01:02:34;;;;;;;20.67;9.75;;;15.60;99.90;;;;;;5113412;27;20047;-73
2023/08/01 01:05:02;;;;;;;19.83;9.25;;;15.60;99.90;;;;;;5094747;28;20122;-74
2023/08/01 01:07:29;;;;;;;20.58;8.80;;;15.60;99.90;;;;;;5095304;28;20055;-73
2023/08/01 01:09:55;;;;;;;22.52;9.38;;;15.60;99.90;;;;;;5105254;28;20075;-73
2023/08/01 01:12:20;;;;;;;22.10;9.02;;;15.60;99.90;;;;;;5111966;28;20083;-73
2023/08/01 01:14:46;;;;;;;;;;;15.60;99.90;;;;;;5077145;28;20035;-73
2023/08/01 01:17:12;;;;;;;22.05;8.70;;;15.60;99.90;;;;;;5112442;28;19928;-73
2023/08/01 01:19:37;;;;;;;;;;;15.60;99.90;;;;;;5112648;28;20122;-73
2023/08/01 01:22:06;;;;;;;23.13;8.60;;;15.50;99.90;;;;;;5094228;28;20006;-74
2023/08/01 01:24:33;;;;;;;24.08;9.18;;;15.50;99.90;;;;;;5112794;28;20051;-73
2023/08/01 01:26:59;;;;;;;19.85;8.82;;;15.50;99.90;;;;;;5080858;28;20143;-73
2023/08/01 01:29:28;;;;;;;22.60;8.80;;;15.50;99.90;;;;;;5093132;28;20104;-73
2023/08/01 01:31:54;;;;;;;24.33;9.70;;;15.50;99.90;;;;;;5108730;27;20054;-73
2023/08/01 01:34:21;;;;;;;19.05;8.70;;;15.50;99.90;;;;;;5109383;28;20047;-73
2023/08/01 01:36:46;;;;;;;22.52;9.10;;;15.50;99.90;;;;;;5102026;28;20051;-73
2023/08/01 01:39:12;;;;;;;22.05;10.00;;;15.50;99.90;;;;;;5093684;28;20907;-73
2023/08/01 01:41:38;;;;;;;20.10;9.00;;;15.50;99.90;;;;;;5112998;28;20130;-73
2023/08/01 01:44:03;;;;;;;;;;;15.50;99.90;;;;;;5107822;27;20054;-75
2023/08/01 01:46:29;;;;;;;24.20;10.65;;;15.50;99.90;;;;;;5114998;27;19926;-73
2023/08/01 01:48:55;;;;;;;29.80;10.98;;;15.50;99.90;;;;;;5098022;28;20092;-73
2023/08/01 01:51:26;;;;;;;21.63;11.45;;;15.50;99.90;;;;;;5060747;27;20058;-73
2023/08/01 01:53:52;;;;;;;26.27;12.38;;;15.50;99.90;;;;;;5113767;27;20496;-73
2023/08/01 01:56:17;;;;;;;26.45;12.65;;;15.50;99.90;;;;;;5089448;28;20073;-73
2023/08/01 01:58:43;;;;;;;;;;;15.50;99.90;;;;;;5093767;28;20051;-73
2023/08/01 02:01:09;;;;;;;34.92;12.57;;;15.50;99.90;;;;;;5105622;28;19926;-73
2023/08/01 02:03:35;;;;;;;;;;;15.50;99.90;;;;;;5129263;27;20168;-73
2023/08/01 02:06:03;;;;;;;25.63;12.27;;;15.50;99.90;;;;;;5114470;27;19925;-73
2023/08/01 02:08:29;;;;;;;25.85;12.95;;;15.50;99.90;;;;;;5109008;28;20506;-73
2023/08/01 02:10:57;;;;;;;28.13;11.80;;;15.50;99.90;;;;;;5111640;28;20048;-73
2023/08/01 02:13:27;;;;;;;33.25;12.02;;;15.40;99.90;;;;;;5089056;28;20152;-73
2023/08/01 02:15:53;;;;;;;27.65;12.02;;;15.40;99.90;;;;;;5113899;27;20099;-73
2023/08/01 02:18:20;;;;;;;28.17;11.98;;;15.40;99.90;;;;;;5131809;27;20054;-74
2023/08/01 02:20:45;;;;;;;26.35;11.93;;;15.40;99.90;;;;;;5077237;28;20048;-73
2023/08/01 02:23:11;;;;;;;24.67;10.90;;;15.40;99.90;;;;;;5116962;27;20050;-73
2023/08/01 02:25:40;;;;;;;24.45;10.88;;;15.40;99.90;;;;;;5114111;27;20164;-73
2023/08/01 02:28:07;;;;;;;25.15;10.93;;;15.30;99.90;;;;;;5111832;27;20055;-74
2023/08/01 02:30:33;;;;;;;21.88;10.63;;;15.30;99.90;;;;;;5114161;27;20558;-74
2023/08/01 02:32:59;;;;;;;25.65;10.85;;;15.30;99.90;;;;;;5113277;27;20082;-73
2023/08/01 02:35:24;;;;;;;23.13;10.85;;;15.30;99.90;;;;;;5085100;27;20139;-73
2023/08/01 02:37:50;;;;;;;;;;;15.20;99.90;;;;;;5093403;28;20047;-73
2023/08/01 02:40:16;;;;;;;22.55;9.90;;;15.20;99.90;;;;;;5110792;28;19920;-73
2023/08/01 02:42:42;;;;;;;23.35;10.25;;;15.20;99.90;;;;;;5092694;28;20047;-74
2023/08/01 02:45:08;;;;;;;26.05;10.32;;;15.20;99.90;;;;;;5102347;28;20047;-74
2023/08/01 02:47:33;;;;;;;;;;;15.20;99.90;;;;;;5060157;28;20097;-73
2023/08/01 02:49:59;;;;;;;22.38;9.82;;;15.20;99.90;;;;;;5113291;27;19919;-73
2023/08/01 02:52:25;;;;;;;23.35;9.55;;;15.20;99.90;;;;;;5114289;27;20055;-73
2023/08/01 02:54:50;;;;;;;24.27;9.98;;;15.20;99.90;;;;;;5084335;27;20526;-73
2023/08/01 02:57:16;;;;;;;25.52;10.35;;;15.20;99.90;;;;;;5096157;27;20119;-73
2023/08/01 02:59:41;;;;;;;;;;;15.20;99.90;;;;;;5105424;28;20161;-73
2023/08/01 03:02:07;;;;;;;22.02;8.85;;;15.20;99.90;;;;;;5093248;28;20022;-73
2023/08/01 03:04:32;;;;;;;;;;;15.20;99.90;;;;;;5112629;27;20051;-73
2023/08/01 03:06:58;;;;;;;24.52;9.27;;;15.10;99.90;;;;;;5084149;28;19919;-73
2023/08/01 03:09:24;;;;;;;;;;;15.10;99.90;;;;;;5076219;28;20047;-73
2023/08/01 03:11:49;;;;;;;25.65;9.10;;;15.10;99.90;;;;;;5110919;28;19924;-73
2023/08/01 03:14:16;;;;;;;;;;;15.10;99.90;;;;;;5091638;28;20094;-73
2023/08/01 03:16:42;;;;;;;19.27;8.20;;;15.10;99.90;;;;;;5076863;28;19926;-73
2023/08/01 03:19:08;;;;;;;20.95;8.10;;;15.00;99.90;;;;;;5112509;28;20289;-73
2023/08/01 03:21:35;;;;;;;19.27;7.93;;;15.00;99.90;;;;;;5096362;27;20103;-73
2023/08/01 03:24:01;;;;;;;17.00;7.82;;;15.00;99.90;;;;;;5131009;27;20047;-73
2023/08/01 03:26:30;;;;;;;21.13;7.47;;;15.00;99.90;;;;;;5130193;27;20047;-73
2023/08/01 03:28:56;;;;;;;21.40;7.90;;;15.00;99.90;;;;;;5109709;28;20055;-73
2023/08/01 03:31:25;;;;;;;18.95;7.50;;;14.90;99.90;;;;;;5112877;28;20130;-73
2023/08/01 03:33:50;;;;;;;23.73;7.95;;;14.90;99.90;;;;;;5093061;28;20047;-73
2023/08/01 03:36:16;;;;;;;23.33;7.50;;;14.90;99.90;;;;;;5091891;28;20044;-73
2023/08/01 03:38:42;;;;;;;20.63;7.47;;;14.90;99.90;;;;;;5092954;28;20048;-73
2023/08/01 03:41:07;;;;;;;24.90;7.65;;;14.90;99.90;;;;;;5099790;28;20051;-73
2023/08/01 03:43:33;;;;;;;22.63;7.72;;;14.80;99.90;;;;;;5111736;28;20168;-73
2023/08/01 03:45:59;;;;;;;20.10;7.30;;;14.80;99.90;;;;;;5112652;28;20404;-73
2023/08/01 03:48:24;;;;;;;;;;;14.80;99.90;;;;;;5108078;28;20043;-73
2023/08/01 03:50:50;;;;;;;22.60;7.72;;;14.80;99.90;;;;;;5096327;28;19938;-73
2023/08/01 03:53:16;;;;;;;;;;;14.70;99.90;;;;;;5114481;28;20124;-75
2023/08/01 03:55:43;;;;;;;25.95;7.93;;;14.70;99.90;;;;;;5080115;28;19973;-73
2023/08/01 03:58:09;;;;;;;17.15;7.03;;;14.70;99.90;;;;;;5078376;28;20097;-73
2023/08/01 04:00:34;;;;;;;23.77;7.82;;;14.70;99.90;;;;;;5106625;27;20123;-73
2023/08/01 04:03:01;;;;;;;;;;;14.70;99.90;;;;;;5117345;27;20058;-73
2023/08/01 04:05:30;;;;;;;18.27;6.65;;;14.70;99.90;;;;;;5116682;27;19923;-73
2023/08/01 04:07:57;;;;;;;22.30;6.38;;;14.70;99.90;;;;;;5102478;28;20067;-73
2023/08/01 04:10:23;;;;;;;27.05;6.93;;;14.80;99.90;;;;;;5090010;27;20522;-72
2023/08/01 04:12:49;;;;;;;26.98;8.45;;;14.80;99.90;;;;;;5094994;28;20051;-71
2023/08/01 04:15:15;;;;;;;;;;;14.80;99.90;;;;;;5127630;27;20047;-72
2023/08/01 04:17:40;;;;;;;13.68;4.95;;;14.70;99.90;;;;;;5134691;27;19919;-71
2023/08/01 04:20:06;;;;;;;;;;;14.70;99.90;;;;;;5135420;27;20130;-71
2023/08/01 04:22:32;;;;;;;17.27;5.18;;;14.60;99.90;;;;;;5134485;27;19927;-71
2023/08/01 04:24:58;;;;;;;20.83;6.25;;;14.60;99.90;;;;;;5116271;27;20054;-71
2023/08/01 04:27:23;;;;;;;;;;;14.60;99.90;;;;;;5119973;27;20063;-71
2023/08/01 04:29:49;;;;;;;15.02;5.00;;;14.60;99.90;;;;;;5105865;28;19966;-72
2023/08/01 04:32:15;;;;;;;11.52;3.90;;;14.60;99.90;;;;;;5118671;27;20104;-72
2023/08/01 04:34:44;;;;;;;9.60;3.45;;;14.50;99.90;;;;;;5133499;27;20059;-72
2023/08/01 04:37:11;;;;;;;8.70;3.30;;;14.40;99.90;;;;;;5115645;27;20039;-72
2023/08/01 04:39:36;;;;;;;17.48;4.20;;;14.40;99.90;;;;;;5115057;27;20043;-72
2023/08/01 04:42:02;;;;;;;11.45;4.78;;;14.40;99.90;;;;;;5107114;28;20055;-71
2023/08/01 04:44:29;;;;;;;11.75;4.07;;;14.40;99.90;;;;;;5112336;28;20052;-71
2023/08/01 04:46:55;;;;;;;8.13;3.10;;;14.40;99.90;;;;;;5111416;27;20108;-71
2023/08/01 04:49:20;;;;;;;8.65;3.00;;;14.40;99.90;;;;;;5114138;27;20042;-71
2023/08/01 04:51:48;;;;;;;7.20;3.35;;;14.30;99.90;;;;;;5095481;28;20402;-71
2023/08/01 04:54:13;;;;;;;11.32;3.60;;;14.20;99.90;;;;;;5095987;27;20047;-71
2023/08/01 04:56:39;;;;;;;12.10;3.65;;;14.20;99.90;;;;;;5133767;27;20046;-71
2023/08/01 04:59:05;;;;;;;9.88;3.28;;;14.20;99.90;;;;;;5132358;27;20039;-71
2023/08/01 05:01:31;;;;;;;;;;;14.20;99.90;;;;;;5115483;27;20087;-71
2023/08/01 05:03:57;;;;;;;10.23;3.80;;;14.20;99.90;;;;;;5115428;27;19927;-71
2023/08/01 05:06:22;;;;;;;;;;;14.20;99.90;;;;;;5125916;27;20058;-72
2023/08/01 05:08:48;;;;;;;11.73;4.38;;;14.20;99.90;;;;;;5077772;28;19927;-71
2023/08/01 05:11:14;;;;;;;8.80;3.35;;;14.30;99.90;;;;;;5095271;28;20044;-72
2023/08/01 05:13:39;;;;;;;8.48;3.50;;;14.30;99.90;;;;;;5109182;27;20427;-72
2023/08/01 05:16:05;;;;;;;8.95;3.55;;;14.30;99.90;;;;;;5086599;27;20043;-72
2023/08/01 05:18:31;;;;;;;9.60;4.00;;;14.30;99.90;;;;;;5112798;27;20051;-72
2023/08/01 05:20:56;;;;;;;11.75;3.65;;;14.40;99.90;;;;;;5113112;28;20050;-72
2023/08/01 05:23:22;;;;;;;10.88;3.55;;;14.40;99.90;;;;;;5106756;27;20043;-73
2023/08/01 05:25:47;;;;;;;;;;;14.40;99.90;;;;;;5133701;27;20089;-72
2023/08/01 05:28:14;;;;;;;9.00;3.60;;;14.50;99.90;;;;;;5131833;27;19920;-72
2023/08/01 05:30:40;;;;;;;10.48;3.80;;;14.50;99.90;;;;;;5132748;27;20515;-72
2023/08/01 05:33:06;;;;;;;9.80;4.00;;;14.50;99.90;;;;;;5133611;27;20089;-72
2023/08/01 05:35:32;;;;;;;10.88;3.67;;;14.50;99.90;;;;;;5108422;28;20036;-72
2023/08/01 05:37:57;;;;;;;13.32;4.47;;;14.50;99.90;;;;;;5094394;28;20399;-72
2023/08/01 05:40:23;;;;;;;13.13;4.60;;;14.60;99.90;;;;;;5094932;28;20043;-73
2023/08/01 05:42:48;;;;;;;10.35;3.85;;;14.60;99.90;;;;;;5093029;28;20112;-73
2023/08/01 05:45:14;;;;;;;11.73;3.72;;;14.60;99.90;;;;;;5094267;28;20087;-72
2023/08/01 05:47:41;;;;;;;10.55;3.38;;;14.60;99.90;;;;;;5111995;28;20046;-72
2023/08/01 05:50:07;;;;;;;12.90;3.65;;;14.60;99.90;;;;;;5094691;28;20071;-72
2023/08/01 05:52:34;;;;;;;26.00;4.25;;;14.50;99.90;;;;;;5111945;28;20047;-71
2023/08/01 05:54:59;;;;;;;8.15;3.55;;;14.60;99.90;;;;;;5122284;27;20122;-71
2023/08/01 05:57:25;;;;;;;16.60;4.03;;;14.50;99.90;;;;;;5113559;27;20122;-72
2023/08/01 05:59:51;;;;;;;12.05;4.53;;;14.50;99.90;;;;;;5131522;27;20055;-71
2023/08/01 06:02:16;;;;;;;13.82;5.00;;;14.50;99.90;;;;;;5133283;27;20055;-72
2023/08/01 06:04:42;;;;;;;15.95;4.22;;;14.50;99.90;;;;;;5106545;28;20108;-72
2023/08/01 06:07:08;;;;;;;12.77;4.68;;;14.50;99.90;;;;;;5109300;27;20047;-72
2023/08/01 06:09:34;;;;;;;;;;;14.50;99.90;;;;;;5114048;27;20050;-71
2023/08/01 06:11:59;;;;;;;15.23;4.50;;;14.50;99.90;;;;;;5131717;27;19919;-71
2023/08/01 06:14:25;;;;;;;9.85;3.55;;;14.60;99.90;;;;;;5095945;27;20103;-71
2023/08/01 06:16:51;;;;;;;18.00;3.70;;;14.60;99.90;;;;;;5113818;27;20035;-71
2023/08/01 06:19:16;;;;;;;10.23;3.40;;;14.50;99.90;;;;;;5129373;27;20046;-71
2023/08/01 06:21:42;;;;;;;18.45;3.42;;;14.50;99.90;;;;;;5102553;28;20048;-71
2023/08/01 06:24:08;;;;;;;;;;;14.50;99.90;;;;;;5093972;28;20048;-71
2023/08/01 06:26:35;;;;;;;13.45;3.25;;;14.40;99.90;;;;;;5111357;28;19924;-70
2023/08/01 06:29:00;;;;;;;10.55;3.10;;;14.40;99.90;;;;;;5120942;27;20400;-71
2023/08/01 06:31:26;;;;;;;9.95;3.28;;;14.30;99.90;;;;;;5114248;27;20043;-71
2023/08/01 06:33:52;;;;;;;12.30;3.80;;;14.30;99.90;;;;;;5132110;27;20058;-71
2023/08/01 06:36:17;;;;;;;11.32;3.95;;;14.30;99.90;;;;;;5112096;27;20112;-71
2023/08/01 06:38:43;;;;;;;12.05;4.45;;;14.30;99.90;;;;;;5117168;27;20061;-72
2023/08/01 06:41:09;;;;;;;;;;;14.40;99.90;;;;;;5114596;27;20070;-71
2023/08/01 06:43:38;;;;;;;19.77;5.80;;;14.50;99.90;;;;;;5081740;28;20372;-72
2023/08/01 06:46:04;;;;;;;17.77;6.60;;;14.50;99.90;;;;;;5116334;27;20087;-72
2023/08/01 06:48:30;;;;;;;;;;;14.60;99.90;;;;;;5111999;28;20043;-73
2023/08/01 06:50:55;;;;;;;18.35;7.15;;;14.70;99.90;;;;;;5111748;28;19933;-72
2023/08/01 06:53:21;;;;;;;24.08;7.20;;;14.70;99.90;;;;;;5093686;28;20047;-72
2023/08/01 06:55:47;;;;;;;;;;;14.80;99.90;;;;;;5111345;28;20050;-72
2023/08/01 06:58:13;;;;;;;13.88;5.70;;;14.90;99.90;;;;;;5092356;28;19927;-72
2023/08/01 07:00:38;;;;;;;14.48;5.68;;;14.90;99.90;;;;;;5091564;27;20047;-72
2023/08/01 07:03:04;;;;;;;12.27;4.85;;;14.90;99.90;;;;;;5131178;27;20046;-73
2023/08/01 07:05:30;;;;;;;14.73;5.13;;;14.90;99.90;;;;;;5112807;27;20043;-72
2023/08/01 07:07:56;;;;;;;;;;;14.90;99.90;;;;;;5107141;27;20454;-73
2023/08/01 07:10:22;;;;;;;11.80;4.60;;;14.90;99.90;;;;;;5113917;27;19923;-73
2023/08/01 07:12:48;;;;;;;10.98;4.38;;;14.90;99.90;;;;;;5096869;28;20051;-73
2023/08/01 07:15:14;;;;;;;;;;;14.90;99.90;;;;;;5094034;28;20040;-73
2023/08/01 07:17:39;;;;;;;14.75;4.60;;;15.00;99.90;;;;;;5116831;27;19923;-72
2023/08/01 07:20:05;;;;;;;14.13;4.90;;;15.00;99.90;;;;;;5080050;27;20152;-73
2023/08/01 07:22:31;;;;;;;11.07;4.63;;;15.00;99.90;;;;;;5112671;27;20047;-73
2023/08/01 07:24:57;;;;;;;16.13;5.15;;;15.00;99.90;;;;;;5131029;27;20106;-73
2023/08/01 07:27:22;;;;;;;;;;;15.00;99.90;;;;;;5113312;28;20058;-74
2023/08/01 07:29:48;;;;;;;12.27;4.55;;;15.10;99.90;;;;;;5087936;28;20606;-72
2023/08/01 07:32:14;;;;;;;8.95;4.55;;;15.10;99.90;;;;;;5092562;28;20044;-73
2023/08/01 07:34:40;;;;;;;9.45;3.75;;;15.10;99.90;;;;;;5109591;28;20048;-73
2023/08/01 07:37:06;;;;;;;16.98;4.68;;;15.10;99.90;;;;;;5111255;28;20047;-73
2023/08/01 07:39:34;;;;;;;12.15;4.22;;;15.10;99.90;;;;;;5109659;28;20123;-72
2023/08/01 07:41:59;;;;;;;12.10;4.68;;;15.10;99.90;;;;;;5118334;28;20051;-72
2023/08/01 07:44:25;;;;;;;14.55;4.30;;;15.20;99.90;;;;;;5123141;28;20070;-73
2023/08/01 07:46:50;;;;;;;;;;;15.30;99.90;;;;;;5109485;28;20054;-72
2023/08/01 07:49:16;;;;;;;6.72;2.80;;;15.30;99.90;;;;;;5117003;28;19923;-72
2023/08/01 07:51:42;;;;;;;7.50;2.92;;;15.20;99.90;;;;;;5116310;28;20054;-71
2023/08/01 07:54:07;;;;;;;;;;;15.10;99.90;;;;;;5093311;28;20048;-71
2023/08/01 07:56:33;;;;;;;6.57;2.85;;;15.10;99.90;;;;;;5111207;28;19927;-72
2023/08/01 07:58:58;;;;;;;;;;;15.10;99.90;;;;;;5109912;28;20051;-71
2023/08/01 08:01:24;;;;;;;10.50;3.10;;;15.20;99.90;;;;;;5111185;28;20021;-73
2023/08/01 08:03:50;;;;;;;7.05;3.10;;;15.10;99.90;;;;;;5110631;28;20047;-71
2023/08/01 08:06:16;;;;;;;;;;;15.10;99.90;;;;;;5092919;28;20047;-74
2023/08/01 08:08:41;;;;;;;14.10;3.42;;;15.20;99.90;;;;;;5106301;28;19931;-71
2023/08/01 08:11:07;;;;;;;9.18;3.40;;;15.20;99.90;;;;;;5109955;28;20163;-71
2023/08/01 08:13:33;;;;;;;10.10;3.60;;;15.20;99.90;;;;;;5114587;28;20122;-71
2023/08/01 08:15:58;;;;;;;;;;;15.10;99.90;;;;;;5115857;28;20044;-71
2023/08/01 08:18:24;;;;;;;11.30;3.28;;;15.10;99.90;;;;;;5107020;28;19965;-72
2023/08/01 08:20:50;;;;;;;11.60;3.50;;;15.10;99.90;;;;;;5108210;28;20096;-71
2023/08/01 08:23:16;;;;;;;9.57;3.22;;;15.10;99.90;;;;;;5108091;28;20476;-71
2023/08/01 08:25:44;;;;;;;10.93;3.50;;;15.10;99.90;;;;;;5106967;28;20050;-72
2023/08/01 08:28:12;;;;;;;10.57;3.08;;;15.00;99.90;;;;;;5106029;28;20063;-71
2023/08/01 08:30:38;;;;;;;10.68;3.53;;;15.00;99.90;;;;;;5131624;27;20071;-72
2023/08/01 08:33:06;;;;;;;7.70;3.67;;;15.00;99.90;;;;;;5108889;28;20461;-72
2023/08/01 08:35:33;;;;;;;12.30;4.25;;;15.10;99.90;;;;;;5093705;27;20051;-72
2023/08/01 08:38:01;;;;;;;44.67;5.57;;;15.00;99.90;;;;;;5104285;27;20150;-72
2023/08/01 08:40:27;;;;;;;12.45;3.92;;;15.10;99.90;;;;;;5127832;27;20051;-72
2023/08/01 08:42:52;;;;;;;;;;;15.10;99.90;;;;;;5113969;27;20562;-71
2023/08/01 08:45:20;;;;;;;17.40;4.25;;;15.10;99.90;;;;;;5133661;27;19967;-70
2023/08/01 08:47:55;;;;;;;21.52;4.20;;;15.00;99.90;;;;;;5131210;27;20384;-71
2023/08/01 08:50:21;;;;;;;14.55;3.72;;;15.00;99.90;;;;;;5102232;27;20043;-70
2023/08/01 08:52:47;;;;;;;11.30;3.47;;;15.00;99.90;;;;;;5098093;27;20061;-71
2023/08/01 08:55:13;;;;;;;;;;;15.00;99.90;;;;;;5129163;27;20122;-71
2023/08/01 08:57:39;;;;;;;9.05;4.15;;;15.00;99.90;;;;;;5107221;27;19966;-72
2023/08/01 09:00:06;;;;;;;12.57;4.28;;;15.10;99.90;;;;;;5115818;27;20527;-72
2023/08/01 09:02:33;;;;;;;12.07;5.25;;;15.10;99.90;;;;;;5128522;27;20082;-72
2023/08/01 09:04:59;;;;;;;14.75;5.38;;;15.10;99.90;;;;;;5119754;27;20164;-72
2023/08/01 09:07:27;;;;;;;;;;;15.20;99.90;;;;;;5132922;27;20047;-72
2023/08/01 09:09:53;;;;;;;17.02;5.47;;;15.30;99.90;;;;;;5131226;27;19935;-72
2023/08/01 09:12:19;;;;;;;18.50;5.65;;;15.50;99.90;;;;;;5105749;27;20051;-72
2023/08/01 09:14:45;;;;;;;15.55;5.53;;;15.50;99.90;;;;;;5084821;27;20047;-73
2023/08/01 09:17:11;;;;;;;;;;;15.50;99.90;;;;;;5116139;27;20392;-71
2023/08/01 09:19:37;;;;;;;19.90;5.95;;;15.50;99.90;;;;;;5104425;27;19920;-70
2023/08/01 09:22:09;;;;;;;;;;;15.50;99.90;;;;;;5112109;28;20481;-71
2023/08/01 09:24:35;;;;;;;14.18;5.13;;;15.50;99.90;;;;;;5130018;27;19927;-71
2023/08/01 09:27:04;;;;;;;21.35;5.88;;;15.50;99.90;;;;;;5124258;27;20046;-71
2023/08/01 09:29:32;;;;;;;21.65;6.45;;;15.50;99.90;;;;;;5106029;27;20056;-70
2023/08/01 09:31:58;;;;;;;100.95;8.18;;;15.60;99.90;;;;;;5126525;27;20086;-69
2023/08/01 09:34:26;;;;;;;20.50;5.53;;;15.60;99.90;;;;;;5133056;27;20601;-71
2023/08/01 09:36:58;;;;;;;12.65;3.80;;;15.50;99.90;;;;;;5103463;28;20544;-72
2023/08/01 09:39:23;;;;;;;13.23;4.18;;;15.40;99.90;;;;;;5111169;27;20130;-71
2023/08/01 09:41:57;;;;;;;16.40;3.33;;;15.20;99.90;;;;;;5121643;27;20122;-72
2023/08/01 09:44:24;;;;;;;11.00;3.58;;;15.10;99.90;;;;;;5113021;27;20542;-71
2023/08/01 09:47:04;;;;;;;13.18;4.30;;;15.00;99.90;;;;;;5132855;27;20047;-74
2023/08/01 09:49:31;;;;;;;14.45;4.28;;;15.00;99.90;;;;;;5132147;27;20601;-71
2023/08/01 09:51:57;;;;;;;13.90;4.03;;;;;;;;;;5097610;27;20062;-72
2023/08/01 09:54:23;;;;;;;15.68;4.03;;;15.00;99.90;;;;;;5101845;28;20040;-72
2023/08/01 09:56:51;;;;;;;11.10;4.28;;;14.80;99.90;;;;;;5127768;27;20054;-74
2023/08/01 09:59:25;;;;;;;12.00;4.25;;;14.70;99.90;;;;;;5098708;27;20130;-72
2023/08/01 10:01:52;;;;;;;14.15;3.83;;;14.70;99.90;;;;;;5087922;28;20126;-74
2023/08/01 10:04:30;;;;;;;13.25;4.18;;;14.70;99.90;;;;;;5097730;27;20058;-72
2023/08/01 10:07:02;;;;;;;12.77;4.80;;;14.70;99.90;;;;;;5101376;28;20051;-72
2023/08/01 10:09:31;;;;;;;12.95;5.00;;;14.60;99.90;;;;;;5093736;28;20039;-72
2023/08/01 10:11:57;;;;;;;11.25;5.00;;;14.70;99.90;;;;;;5096946;27;20496;-72
2023/08/01 10:14:25;;;;;;;13.75;5.35;;;14.70;99.90;;;;;;5108892;28;20120;-72
2023/08/01 10:16:51;;;;;;;17.17;6.47;;;14.80;99.90;;;;;;5096413;28;20465;-75
2023/08/01 10:19:19;;;;;;;13.10;6.32;;;15.00;99.90;;;;;;5093959;28;20054;-71
2023/08/01 10:21:46;;;;;;;19.63;6.40;;;15.20;99.90;;;;;;5112609;28;20051;-72
2023/08/01 10:24:14;;;;;;;15.43;6.97;;;15.20;99.90;;;;;;5076474;28;20044;-72
2023/08/01 10:26:40;;;;;;;17.48;6.90;;;15.30;99.90;;;;;;5112537;28;20054;-72
2023/08/01 10:29:06;;;;;;;13.40;6.25;;;15.50;99.90;;;;;;5093585;27;20063;-70
2023/08/01 10:31:32;;;;;;;;;;;15.60;99.90;;;;;;5115157;27;20097;-70
2023/08/01 10:34:06;;;;;;;15.88;6.35;;;15.50;99.90;;;;;;5114218;27;19943;-70
2023/08/01 10:36:32;;;;;;;10.35;5.05;;;15.70;99.90;;;;;;5131712;27;20403;-73
2023/08/01 10:39:00;;;;;;;14.90;5.65;;;15.60;99.90;;;;;;5131788;27;20082;-74
2023/08/01 10:41:29;;;;;;;13.63;5.82;;;15.70;99.90;;;;;;5102716;28;20039;-73
2023/08/01 10:44:15;;;;;;;12.70;5.30;;;15.80;99.90;;;;;;5092904;27;20048;-75
2023/08/01 10:46:53;;;;;;;11.02;4.57;;;15.90;99.90;;;;;;5111338;27;20043;-75
2023/08/01 10:49:21;;;;;;;12.38;4.45;;;15.90;99.90;;;;;;5116204;27;20043;-75
2023/08/01 10:51:47;;;;;;;10.43;4.43;;;15.80;99.90;;;;;;5097107;27;20078;-75
2023/08/01 10:54:23;;;;;;;;;;;15.80;99.90;;;;;;5113128;27;20092;-76
2023/08/01 10:56:51;;;;;;;12.43;3.50;;;15.80;99.90;;;;;;5093482;27;19926;-76
2023/08/01 10:59:18;;;;;;;10.95;3.70;;;16.00;99.90;;;;;;5111591;27;20047;-75
2023/08/01 11:01:45;;;;;;;11.57;3.10;;;16.00;99.90;;;;;;5113713;27;20057;-76
2023/08/01 11:04:21;;;;;;;12.88;4.43;;;16.00;99.90;;;;;;5095274;27;20039;-76
2023/08/01 11:06:48;;;;;;;;;;;16.00;99.90;;;;;;5102223;28;20103;-77
2023/08/01 11:09:19;;;;;;;10.80;3.05;;;16.10;99.90;;;;;;5112299;27;20366;-76
2023/08/01 11:11:48;;;;;;;8.73;2.47;;;16.10;99.90;;;;;;5109235;27;20434;-76
2023/08/01 11:14:14;;;;;;;6.93;2.70;;;16.10;99.90;;;;;;5095058;27;20074;-76
2023/08/01 11:16:39;;;;;;;;;;;16.00;99.90;;;;;;5113682;27;20611;-78
2023/08/01 11:19:16;;;;;;;9.20;2.63;;;15.90;99.90;;;;;;5107915;27;19973;-77
2023/08/01 11:21:42;;;;;;;10.15;2.70;;;15.80;99.90;;;;;;5092805;28;20048;-76
2023/08/01 11:24:08;;;;;;;;;;;15.80;99.90;;;;;;5068155;28;20056;-77
2023/08/01 11:26:34;;;;;;;6.80;2.20;;;15.70;99.90;;;;;;5092556;28;19927;-77
2023/08/01 11:29:03;;;;;;;8.93;2.25;;;15.70;99.90;;;;;;5120582;27;20081;-79
2023/08/01 11:31:30;;;;;;;6.65;2.30;;;15.50;99.90;;;;;;5111320;28;20071;-76
2023/08/01 11:33:57;;;;;;;6.57;2.72;;;15.50;99.90;;;;;;5106485;28;20079;-75
2023/08/01 11:36:27;;;;;;;7.43;2.50;;;15.50;99.90;;;;;;5092067;28;20040;-75
2023/08/01 11:38:53;;;;;;;7.93;2.67;;;15.40;99.90;;;;;;5082795;28;20044;-76
2023/08/01 11:41:19;;;;;;;12.70;3.13;;;15.40;99.90;;;;;;5112974;28;20696;-76
2023/08/01 11:43:44;;;;;;;10.10;3.40;;;15.50;99.90;;;;;;5112049;28;20043;-76
2023/08/01 11:46:10;;;;;;;9.75;3.97;;;15.50;99.90;;;;;;5089082;28;20052;-76
2023/08/01 11:48:36;;;;;;;;;;;15.80;99.90;;;;;;5095700;28;20043;-75
2023/08/01 11:51:02;;;;;;;12.40;4.22;;;16.10;99.90;;;;;;5109034;28;20360;-74
2023/08/01 11:53:29;;;;;;;;;;;16.30;99.90;;;;;;5080311;28;20040;-73
2023/08/01 11:55:56;;;;;;;10.95;3.55;;;16.50;99.90;;;;;;5095988;28;19927;-76
2023/08/01 11:58:36;;;;;;;6.38;2.38;;;16.50;99.90;;;;;;5111423;28;20066;-76
2023/08/01 12:01:11;;;;;;;11.95;2.50;;;16.30;99.90;;;;;;5093745;28;20040;-75
2023/08/01 12:03:54;;;;;;;6.40;2.22;;;16.20;99.90;;;;;;5093430;28;20047;-71
2023/08/01 12:06:22;;;;;;;7.40;2.42;;;16.00;99.90;;;;;;5114239;28;20091;-71
2023/08/01 12:08:50;;;;;;;7.43;2.80;;;16.20;99.90;;;;;;5112596;27;20480;-71
2023/08/01 12:11:30;;;;;;;11.63;2.75;;;16.60;99.90;;;;;;5115288;27;20130;-71
2023/08/01 12:14:09;;;;;;;10.75;3.20;;;16.70;99.90;;;;;;5116543;27;20051;-76
2023/08/01 12:16:35;;;;;;;7.53;2.63;;;;;;;;;;5117127;27;20480;-74
2023/08/01 12:19:02;;;;;;;8.60;2.30;;;;;;;;;;5098724;27;20082;-78
2023/08/01 12:21:28;;;;;;;8.48;2.38;;;17.70;99.90;;;;;;5098200;27;20047;-74
2023/08/01 12:23:54;;;;;;;8.70;2.10;;;17.70;99.90;;;;;;5098136;27;20119;-77
2023/08/01 12:26:20;;;;;;;;;;;17.40;99.90;;;;;;5098480;27;20135;-74
2023/08/01 12:28:46;;;;;;;7.40;2.00;;;17.00;99.90;;;;;;5110500;27;19923;-76
2023/08/01 12:31:17;;;;;;;8.15;1.90;;;16.70;99.90;;;;;;5102153;27;20571;-75
2023/08/01 12:33:43;;;;;;;8.30;2.55;;;16.50;99.90;;;;;;5116902;27;20259;-76
2023/08/01 12:36:08;;;;;;;;;;;16.40;99.90;;;;;;5092873;28;20477;-76
2023/08/01 12:38:34;;;;;;;7.10;2.10;;;16.20;99.90;;;;;;5098835;27;19920;-76
2023/08/01 12:41:00;;;;;;;;;;;16.20;99.90;;;;;;5096525;28;20481;-75
2023/08/01 12:43:26;;;;;;;8.73;2.20;;;16.20;99.90;;;;;;5094911;28;20467;-76
2023/08/01 12:45:51;;;;;;;;;;;16.20;99.90;;;;;;5096321;27;20040;-76
2023/08/01 12:48:17;;;;;;;7.43;2.45;;;16.20;99.90;;;;;;5098831;27;20488;-77
2023/08/01 12:50:43;;;;;;;;;;;;;;;;;;5117185;27;20092;-76
2023/08/01 12:53:10;;;;;;;10.20;3.10;;;17.30;99.90;;;;;;5115879;27;19923;-77